createdAt,value
2022-12-24T00:01:39.669Z,49.38
2022-12-24T00:04:08.799Z,47.85
2022-12-24T00:06:37.886Z,50.50
2022-12-24T00:09:07.029Z,50.85
2022-12-24T00:11:37.542Z,53.10
2022-12-24T00:14:06.846Z,51.78
2022-12-24T00:16:35.483Z,50.65
2022-12-24T00:19:04.570Z,54.25
2022-12-24T00:21:33.613Z,45.80
2022-12-24T00:24:06.094Z,48.95
2022-12-24T00:26:37.011Z,52.30
2022-12-24T00:29:06.706Z,53.67
2022-12-24T00:31:35.381Z,54.80
2022-12-24T00:34:04.531Z,53.85
2022-12-24T00:36:33.496Z,53.50
2022-12-24T00:39:02.613Z,50.97
2022-12-24T00:41:31.861Z,49.05
2022-12-24T00:44:05.781Z,48.83
2022-12-24T00:46:36.021Z,48.85
2022-12-24T00:49:06.213Z,51.70
2022-12-24T00:51:35.553Z,47.50
2022-12-24T00:54:05.251Z,48.85
2022-12-24T00:56:34.494Z,50.28
2022-12-24T00:59:07.393Z,47.45
2022-12-24T01:01:37.003Z,47.85
2022-12-24T01:04:23.451Z,50.58
2022-12-24T01:06:52.517Z,48.28
2022-12-24T01:09:21.501Z,49.65
2022-12-24T01:11:50.536Z,49.42
2022-12-24T01:14:20.950Z,48.33
2022-12-24T01:16:49.621Z,46.88
2022-12-24T01:19:18.614Z,49.90
2022-12-24T01:21:47.658Z,52.25
2022-12-24T01:24:16.817Z,47.78
2022-12-24T01:26:45.855Z,45.03
2022-12-24T01:29:14.904Z,51.25
2022-12-24T01:31:45.068Z,47.67
2022-12-24T01:34:14.313Z,48.53
2022-12-24T01:36:44.548Z,49.42
2022-12-24T01:41:59.813Z,45.53
2022-12-24T01:44:36.196Z,46.38
2022-12-24T01:47:11.667Z,44.90
2022-12-24T01:49:42.552Z,46.97
2022-12-24T01:52:15.850Z,47.17
2022-12-24T01:54:48.097Z,49.53
2022-12-24T01:57:19.911Z,47.85
2022-12-24T01:59:52.112Z,46.60
2022-12-24T02:02:23.321Z,46.53
2022-12-24T02:04:57.865Z,42.97
2022-12-24T02:07:27.151Z,45.42
2022-12-24T02:09:59.528Z,49.03
2022-12-24T02:12:29.000Z,48.45
2022-12-24T02:14:58.473Z,47.63
2022-12-24T02:17:31.782Z,49.22
2022-12-24T02:20:33.421Z,47.15
2022-12-24T02:23:11.658Z,48.70
2022-12-24T02:25:51.652Z,49.72
2022-12-24T02:28:35.283Z,49.30
2022-12-24T02:31:08.103Z,48.55
2022-12-24T02:33:40.489Z,50.92
2022-12-24T02:36:14.447Z,50.22
2022-12-24T02:38:48.302Z,47.28
2022-12-24T02:41:20.588Z,52.40
2022-12-24T02:43:50.104Z,52.63
2022-12-24T02:46:24.026Z,49.67
2022-12-24T02:48:55.761Z,47.67
2022-12-24T02:51:26.073Z,46.00
2022-12-24T02:56:36.412Z,47.97
2022-12-24T02:59:20.763Z,48.80
2022-12-24T03:01:57.887Z,55.22
2022-12-24T03:04:42.893Z,48.58
2022-12-24T03:07:21.256Z,46.95
2022-12-24T03:09:58.764Z,47.63
2022-12-24T03:12:32.354Z,49.97
2022-12-24T03:15:01.606Z,49.38
2022-12-24T03:17:33.094Z,52.88
2022-12-24T03:20:02.202Z,49.97
2022-12-24T03:22:32.192Z,49.80
2022-12-24T03:27:31.725Z,48.55
2022-12-24T03:30:01.127Z,45.65
2022-12-24T03:32:32.952Z,49.83
2022-12-24T03:35:02.851Z,44.80
2022-12-24T03:37:31.489Z,47.25
2022-12-24T03:40:00.379Z,45.53
2022-12-24T03:42:29.405Z,50.10
2022-12-24T03:44:58.339Z,50.22
2022-12-24T03:47:27.439Z,51.25
2022-12-24T03:49:57.452Z,47.33
2022-12-24T03:54:55.281Z,45.00
2022-12-24T03:57:24.300Z,45.58
2022-12-24T03:59:53.444Z,46.03
2022-12-24T04:02:22.537Z,44.80
2022-12-24T04:04:51.278Z,47.22
2022-12-24T04:07:21.746Z,45.90
2022-12-24T04:09:50.769Z,48.60
2022-12-24T04:12:19.891Z,46.45
2022-12-24T04:14:48.942Z,51.47
2022-12-24T04:17:18.050Z,45.20
2022-12-24T04:19:46.738Z,46.72
2022-12-24T04:22:15.816Z,44.70
2022-12-24T04:24:46.231Z,48.55
2022-12-24T04:27:15.910Z,44.83
2022-12-24T04:29:44.932Z,44.75
2022-12-24T04:32:13.935Z,48.58
2022-12-24T04:34:42.549Z,44.45
2022-12-24T04:37:11.510Z,45.30
2022-12-24T04:39:40.474Z,40.60
2022-12-24T04:42:10.922Z,44.97
2022-12-24T04:44:39.941Z,41.05
2022-12-24T04:47:10.849Z,41.47
2022-12-24T04:49:40.675Z,40.50
2022-12-24T04:52:10.615Z,37.65
2022-12-24T04:54:39.624Z,38.42
2022-12-24T04:57:08.642Z,40.13
2022-12-24T04:59:39.066Z,39.33
2022-12-24T05:02:08.209Z,41.30
2022-12-24T05:04:36.917Z,43.08
2022-12-24T05:07:06.298Z,41.13
2022-12-24T05:09:35.444Z,41.25
2022-12-24T05:12:04.486Z,40.80
2022-12-24T05:14:34.584Z,42.70
2022-12-24T05:17:05.363Z,39.33
2022-12-24T05:22:20.110Z,38.55
2022-12-24T05:25:06.440Z,35.97
2022-12-24T05:27:35.453Z,39.78
2022-12-24T05:30:04.807Z,32.92
2022-12-24T05:32:35.304Z,35.05
2022-12-24T05:35:04.440Z,33.92
2022-12-24T05:37:33.063Z,34.20
2022-12-24T05:40:02.052Z,30.08
2022-12-24T05:42:30.938Z,32.50
2022-12-24T05:44:59.925Z,29.65
2022-12-24T05:47:28.905Z,27.08
2022-12-24T05:49:59.294Z,27.73
2022-12-24T05:52:27.884Z,27.33
2022-12-24T05:54:56.841Z,26.05
2022-12-24T05:57:26.072Z,26.88
2022-12-24T05:59:55.121Z,24.23
2022-12-24T06:02:25.798Z,25.00
2022-12-24T06:07:24.754Z,20.58
2022-12-24T06:09:53.850Z,20.33
2022-12-24T06:12:22.875Z,21.92
2022-12-24T06:14:51.882Z,21.15
2022-12-24T06:17:20.840Z,21.33
2022-12-24T06:19:49.502Z,21.48
2022-12-24T06:22:18.527Z,20.50
2022-12-24T06:24:49.006Z,20.92
2022-12-24T06:27:18.020Z,20.45
2022-12-24T06:29:46.985Z,20.35
2022-12-24T06:32:15.965Z,23.92
2022-12-24T06:34:44.602Z,22.67
2022-12-24T06:37:18.512Z,21.58
2022-12-24T06:39:49.029Z,22.42
2022-12-24T06:44:46.576Z,21.30
2022-12-24T06:47:15.512Z,21.85
2022-12-24T06:49:44.452Z,21.67
2022-12-24T06:52:13.406Z,21.77
2022-12-24T06:54:42.385Z,22.08
2022-12-24T06:57:12.788Z,20.90
2022-12-24T06:59:41.816Z,21.45
2022-12-24T07:02:12.445Z,22.90
2022-12-24T07:04:41.225Z,20.95
2022-12-24T07:07:10.175Z,21.23
2022-12-24T07:09:39.130Z,22.15
2022-12-24T07:12:08.300Z,22.45
2022-12-24T07:14:38.869Z,20.67
2022-12-24T07:17:08.129Z,20.42
2022-12-24T07:19:36.971Z,19.92
2022-12-24T07:22:09.032Z,21.85
2022-12-24T07:24:42.627Z,20.65
2022-12-24T07:27:11.598Z,23.13
2022-12-24T07:29:42.112Z,21.15
2022-12-24T07:32:11.334Z,20.30
2022-12-24T07:34:40.124Z,20.35
2022-12-24T07:37:09.588Z,20.60
2022-12-24T07:39:38.596Z,21.90
2022-12-24T07:42:08.650Z,20.23
2022-12-24T07:47:08.220Z,19.42
2022-12-24T07:49:37.736Z,19.20
2022-12-24T07:52:06.823Z,21.40
2022-12-24T07:54:35.922Z,18.85
2022-12-24T07:57:04.995Z,18.95
2022-12-24T07:59:34.067Z,19.33
2022-12-24T08:02:03.270Z,19.95
2022-12-24T08:04:36.442Z,18.58
2022-12-24T08:07:05.750Z,18.52
2022-12-24T08:09:35.046Z,20.48
2022-12-24T08:12:04.354Z,19.45
2022-12-24T08:14:33.525Z,18.90
2022-12-24T08:17:02.432Z,20.05
2022-12-24T08:19:31.032Z,20.33
2022-12-24T08:22:01.357Z,18.92
2022-12-24T08:24:30.382Z,19.55
2022-12-24T08:26:59.298Z,21.85
2022-12-24T08:29:28.623Z,20.25
2022-12-24T08:31:58.464Z,22.33
2022-12-24T08:34:28.428Z,19.98
2022-12-24T08:36:57.369Z,18.83
2022-12-24T08:39:27.822Z,18.80
2022-12-24T08:41:56.750Z,20.80
2022-12-24T08:44:25.871Z,19.00
2022-12-24T08:46:54.457Z,23.00
2022-12-24T08:49:23.796Z,19.30
2022-12-24T08:51:52.780Z,19.48
2022-12-24T08:54:22.604Z,19.80
2022-12-24T08:56:53.070Z,19.15
2022-12-24T08:59:22.004Z,19.45
2022-12-24T09:01:50.638Z,17.80
2022-12-24T09:04:20.311Z,17.98
2022-12-24T09:06:49.405Z,17.42
2022-12-24T09:09:18.441Z,18.67
2022-12-24T09:11:48.035Z,17.58
2022-12-24T09:14:18.491Z,17.30
2022-12-24T09:16:47.344Z,16.15
2022-12-24T09:19:16.366Z,17.38
2022-12-24T09:21:45.339Z,17.52
2022-12-24T09:24:14.330Z,16.95
2022-12-24T09:26:43.492Z,19.30
2022-12-24T09:29:12.919Z,18.20
2022-12-24T09:31:43.135Z,17.33
2022-12-24T09:34:12.232Z,15.75
2022-12-24T09:36:41.246Z,16.77
2022-12-24T09:39:10.957Z,17.33
2022-12-24T09:41:46.516Z,16.55
2022-12-24T09:44:25.927Z,15.02
2022-12-24T09:46:56.805Z,16.13
2022-12-24T09:49:28.305Z,15.23
2022-12-24T09:52:00.280Z,15.23
2022-12-24T09:54:31.952Z,15.85
2022-12-24T09:57:05.605Z,15.52
2022-12-24T09:59:41.319Z,15.57
2022-12-24T10:02:14.271Z,14.27
2022-12-24T10:04:43.596Z,15.20
2022-12-24T10:07:24.069Z,15.32
2022-12-24T10:09:58.518Z,15.60
2022-12-24T10:12:34.732Z,14.13
2022-12-24T10:15:11.510Z,15.40
2022-12-24T10:17:51.610Z,14.50
2022-12-24T10:20:43.601Z,14.18
2022-12-24T10:23:19.085Z,14.50
2022-12-24T10:25:52.727Z,13.95
2022-12-24T10:28:26.232Z,14.15
2022-12-24T10:30:59.932Z,14.50
2022-12-24T10:33:33.685Z,15.18
2022-12-24T10:36:08.201Z,15.13
2022-12-24T10:38:40.883Z,15.55
2022-12-24T10:41:09.950Z,15.38
2022-12-24T10:43:40.116Z,14.88
2022-12-24T10:46:18.150Z,14.68
2022-12-24T10:48:53.680Z,15.65
2022-12-24T10:51:26.555Z,15.57
2022-12-24T10:53:59.129Z,15.80
2022-12-24T10:56:28.165Z,15.18
2022-12-24T10:58:57.004Z,14.10
2022-12-24T11:01:46.985Z,15.38
2022-12-24T11:04:20.159Z,13.02
2022-12-24T11:06:57.487Z,13.40
2022-12-24T11:09:29.632Z,14.93
2022-12-24T11:12:03.851Z,14.13
2022-12-24T11:14:38.112Z,14.02
2022-12-24T11:17:07.520Z,16.08
2022-12-24T11:19:40.277Z,17.50
2022-12-24T11:22:18.198Z,16.10
2022-12-24T11:24:50.360Z,15.27
2022-12-24T11:27:32.305Z,16.75
2022-12-24T11:30:20.695Z,15.32
2022-12-24T11:32:51.195Z,17.30
2022-12-24T11:35:24.009Z,19.73
2022-12-24T11:38:11.543Z,20.60
2022-12-24T11:40:42.780Z,21.45
2022-12-24T11:43:16.837Z,22.98
2022-12-24T11:45:50.991Z,21.90
2022-12-24T11:48:30.973Z,22.95
2022-12-24T11:51:02.409Z,20.77
2022-12-24T11:53:37.867Z,20.63
2022-12-24T11:56:10.790Z,19.95
2022-12-24T11:58:43.080Z,20.90
2022-12-24T12:01:18.444Z,20.13
2022-12-24T12:03:50.300Z,20.75
2022-12-24T12:06:29.233Z,20.83
2022-12-24T12:09:01.405Z,21.98
2022-12-24T12:11:31.058Z,24.10
2022-12-24T12:14:01.691Z,25.55
2022-12-24T12:16:53.755Z,25.00
2022-12-24T12:19:23.502Z,24.85
2022-12-24T12:21:54.345Z,24.55
2022-12-24T12:24:31.827Z,25.38
2022-12-24T12:27:09.377Z,25.80
2022-12-24T12:29:44.037Z,26.13
2022-12-24T12:32:17.952Z,24.90
2022-12-24T12:34:53.807Z,23.50
2022-12-24T12:37:29.006Z,20.33
2022-12-24T12:39:58.241Z,20.95
2022-12-24T12:42:32.355Z,20.05
2022-12-24T12:45:21.882Z,20.58
2022-12-24T12:48:06.759Z,21.90
2022-12-24T12:50:41.036Z,24.80
2022-12-24T12:53:26.744Z,23.20
2022-12-24T12:56:02.226Z,26.15
2022-12-24T12:58:33.795Z,28.02
2022-12-24T13:01:07.048Z,29.08
2022-12-24T13:04:17.586Z,27.85
2022-12-24T13:09:46.400Z,27.27
2022-12-24T13:12:42.343Z,30.33
2022-12-24T13:15:29.713Z,32.22
2022-12-24T13:18:21.983Z,32.17
2022-12-24T13:20:52.204Z,31.98
2022-12-24T13:23:23.030Z,29.98
2022-12-24T13:28:37.141Z,28.83
2022-12-24T13:31:26.041Z,29.33
2022-12-24T13:33:56.707Z,30.63
2022-12-24T13:36:26.141Z,28.48
2022-12-24T13:38:57.281Z,28.45
2022-12-24T13:41:55.219Z,26.35
2022-12-24T13:44:33.017Z,26.58
2022-12-24T13:47:30.142Z,27.75
2022-12-24T13:50:19.333Z,27.17
2022-12-24T13:52:53.447Z,29.65
2022-12-24T13:55:22.874Z,33.67
2022-12-24T13:57:58.849Z,31.15
2022-12-24T14:00:41.873Z,33.13
2022-12-24T14:03:25.183Z,33.53
2022-12-24T14:05:55.973Z,33.75
2022-12-24T14:08:32.120Z,34.92
2022-12-24T14:11:07.006Z,32.05
2022-12-24T14:14:09.664Z,31.30
2022-12-24T14:16:51.312Z,31.10
2022-12-24T14:19:22.347Z,30.15
2022-12-24T14:21:57.393Z,32.00
2022-12-24T14:24:28.998Z,29.90
2022-12-24T14:27:02.057Z,30.02
2022-12-24T14:29:33.913Z,32.08
2022-12-24T14:32:14.306Z,29.25
2022-12-24T14:34:43.347Z,28.70
2022-12-24T14:37:13.938Z,31.48
2022-12-24T14:39:45.228Z,30.95
2022-12-24T14:42:31.012Z,29.85
2022-12-24T14:45:08.379Z,29.02
2022-12-24T14:47:43.125Z,31.27
2022-12-24T14:50:40.852Z,32.10
2022-12-24T14:53:22.439Z,32.08
2022-12-24T14:55:51.736Z,32.25
2022-12-24T14:58:23.638Z,33.65
2022-12-24T15:00:53.983Z,34.08
2022-12-24T15:05:56.528Z,36.60
2022-12-24T15:08:32.028Z,37.63
2022-12-24T15:11:03.942Z,37.33
2022-12-24T15:13:37.335Z,36.58
2022-12-24T15:16:09.420Z,34.90
2022-12-24T15:18:43.540Z,37.13
2022-12-24T15:21:17.363Z,33.38
2022-12-24T15:23:48.857Z,34.75
2022-12-24T15:26:24.885Z,35.90
2022-12-24T15:29:01.830Z,34.65
2022-12-24T15:31:32.437Z,34.40
2022-12-24T15:34:02.898Z,32.67
2022-12-24T15:36:33.514Z,31.02
2022-12-24T15:39:04.735Z,33.58
2022-12-24T15:41:59.469Z,31.10
2022-12-24T15:44:28.889Z,34.17
2022-12-24T15:47:00.412Z,32.25
2022-12-24T15:49:34.862Z,33.80
2022-12-24T15:52:06.764Z,30.95
2022-12-24T15:54:36.211Z,31.92
2022-12-24T15:57:15.514Z,30.50
2022-12-24T15:59:44.843Z,31.42
2022-12-24T16:02:39.033Z,30.83
2022-12-24T16:05:30.433Z,29.25
2022-12-24T16:08:08.527Z,30.60
2022-12-24T16:10:40.405Z,30.45
2022-12-24T16:13:15.725Z,31.50
2022-12-24T16:15:51.267Z,31.33
2022-12-24T16:18:25.803Z,29.40
2022-12-24T16:20:57.541Z,29.95
2022-12-24T16:23:28.698Z,33.03
2022-12-24T16:25:59.602Z,31.60
2022-12-24T16:28:28.993Z,32.53
2022-12-24T16:30:58.578Z,32.00
2022-12-24T16:33:27.635Z,32.90
2022-12-24T16:35:58.391Z,32.47
2022-12-24T16:38:47.400Z,31.90
2022-12-24T16:41:16.014Z,32.10
2022-12-24T16:43:50.352Z,30.55
2022-12-24T16:46:19.785Z,32.83
2022-12-24T16:48:49.969Z,33.17
2022-12-24T16:51:20.553Z,35.60
2022-12-24T16:53:49.747Z,31.85
2022-12-24T16:56:19.245Z,32.08
2022-12-24T16:58:47.841Z,33.60
2022-12-24T17:01:16.986Z,32.80
2022-12-24T17:03:46.062Z,35.45
2022-12-24T17:06:15.047Z,32.60
2022-12-24T17:08:46.250Z,34.60
2022-12-24T17:13:43.498Z,34.72
2022-12-24T17:16:12.573Z,34.65
2022-12-24T17:18:41.637Z,36.25
2022-12-24T17:21:13.809Z,37.70
2022-12-24T17:23:43.640Z,34.40
2022-12-24T17:26:15.366Z,37.20
2022-12-24T17:28:44.522Z,36.92
2022-12-24T17:31:14.914Z,37.15
2022-12-24T17:33:44.149Z,37.55
2022-12-24T17:36:13.182Z,36.47
2022-12-24T17:38:42.300Z,37.72
2022-12-24T17:41:15.049Z,37.92
2022-12-24T17:43:43.775Z,40.38
2022-12-24T17:46:15.462Z,36.78
2022-12-24T17:48:44.804Z,37.10
2022-12-24T17:51:18.859Z,38.70
2022-12-24T17:53:48.080Z,34.55
2022-12-24T17:56:18.866Z,33.30
2022-12-24T17:59:25.348Z,34.13
2022-12-24T18:02:34.735Z,35.65
2022-12-24T18:05:44.177Z,36.13
2022-12-24T18:08:53.436Z,31.08
2022-12-24T18:12:04.812Z,31.58
2022-12-24T18:15:14.053Z,34.85
2022-12-24T18:18:23.404Z,35.40
2022-12-24T18:21:34.094Z,35.42
2022-12-24T18:24:43.419Z,34.17
2022-12-24T18:27:54.003Z,35.20
2022-12-24T18:31:05.585Z,33.35
2022-12-24T18:34:16.449Z,34.13
2022-12-24T18:37:25.735Z,34.83
2022-12-24T18:40:38.155Z,35.03
2022-12-24T18:43:49.401Z,33.88
2022-12-24T18:46:58.796Z,36.00
2022-12-24T18:50:09.309Z,36.72
2022-12-24T18:53:19.390Z,33.92
2022-12-24T18:56:28.759Z,32.80
2022-12-24T18:59:40.823Z,33.92
2022-12-24T19:02:50.130Z,32.78
2022-12-24T19:06:03.202Z,29.27
2022-12-24T19:09:12.664Z,28.45
2022-12-24T19:12:22.005Z,26.15
2022-12-24T19:15:35.972Z,28.17
2022-12-24T19:18:45.458Z,30.17
2022-12-24T19:21:54.714Z,28.20
2022-12-24T19:25:03.947Z,28.58
2022-12-24T19:28:13.249Z,27.17
2022-12-24T19:31:25.169Z,27.27
2022-12-24T19:34:34.455Z,27.58
2022-12-24T19:37:43.621Z,27.17
2022-12-24T19:40:52.784Z,27.00
2022-12-24T19:44:02.893Z,25.80
2022-12-24T19:47:13.711Z,25.33
2022-12-24T19:50:22.961Z,24.85
2022-12-24T19:53:32.231Z,25.98
2022-12-24T19:56:41.508Z,25.92
2022-12-24T19:59:53.367Z,27.08
2022-12-24T20:03:04.153Z,24.80
2022-12-24T20:06:13.981Z,25.38
2022-12-24T20:09:23.262Z,24.88
2022-12-24T20:12:33.643Z,24.13
2022-12-24T20:15:44.344Z,24.02
2022-12-24T20:18:56.189Z,25.60
2022-12-24T20:22:05.523Z,24.95
2022-12-24T20:25:14.776Z,25.10
2022-12-24T20:28:24.039Z,26.00
2022-12-24T20:31:33.795Z,26.25
2022-12-24T20:34:44.646Z,25.98
2022-12-24T20:37:53.978Z,24.75
2022-12-24T20:41:03.257Z,27.08
2022-12-24T20:44:12.658Z,25.88
2022-12-24T20:47:21.939Z,27.33
2022-12-24T20:50:32.831Z,25.80
2022-12-24T20:53:46.122Z,24.90
2022-12-24T20:56:58.271Z,26.10
2022-12-24T21:00:10.552Z,27.25
2022-12-24T21:03:20.968Z,25.70
2022-12-24T21:09:40.850Z,25.95
2022-12-24T21:12:50.343Z,26.65
2022-12-24T21:16:00.147Z,26.50
2022-12-24T21:19:12.700Z,25.53
2022-12-24T21:22:23.660Z,24.48
2022-12-24T21:25:32.911Z,25.50
2022-12-24T21:28:42.725Z,23.67
2022-12-24T21:31:51.983Z,25.52
2022-12-24T21:35:01.650Z,24.88
2022-12-24T21:38:12.558Z,25.83
2022-12-24T21:41:23.671Z,26.42
2022-12-24T21:44:32.978Z,28.15
2022-12-24T21:47:44.693Z,25.38
2022-12-24T21:50:55.691Z,26.88
2022-12-24T21:54:27.310Z,25.75
2022-12-24T21:57:55.196Z,24.92
2022-12-24T22:01:08.404Z,25.75
2022-12-24T22:04:17.819Z,26.38
2022-12-24T22:07:46.539Z,25.27
2022-12-24T22:11:26.228Z,25.88
2022-12-24T22:14:35.555Z,26.63
2022-12-24T22:17:44.960Z,25.30
2022-12-24T22:20:54.360Z,27.58
2022-12-24T22:24:04.104Z,25.13
2022-12-24T22:27:14.867Z,24.77
2022-12-24T22:30:24.271Z,26.45
2022-12-24T22:33:36.198Z,24.85
2022-12-24T22:36:45.481Z,24.83
2022-12-24T22:39:54.688Z,25.98
2022-12-24T22:43:05.420Z,25.13
2022-12-24T22:46:15.311Z,24.65
2022-12-24T22:49:24.877Z,25.83
2022-12-24T22:52:35.036Z,27.25
2022-12-24T22:55:44.238Z,25.58
2022-12-24T22:58:56.542Z,23.50
2022-12-24T23:02:06.590Z,25.55
2022-12-24T23:05:16.418Z,27.15
2022-12-24T23:08:26.019Z,25.30
2022-12-24T23:11:35.392Z,26.38
2022-12-24T23:14:56.712Z,25.85
2022-12-24T23:18:06.198Z,26.73
2022-12-24T23:21:15.550Z,27.65
2022-12-24T23:24:24.741Z,25.90
2022-12-24T23:27:34.015Z,28.75
2022-12-24T23:30:44.932Z,27.70
2022-12-24T23:33:54.261Z,28.48
2022-12-24T23:37:03.488Z,30.70
2022-12-24T23:40:13.216Z,29.27
2022-12-24T23:43:22.412Z,29.17
2022-12-24T23:46:33.147Z,29.55
2022-12-24T23:49:42.370Z,30.33
2022-12-24T23:52:51.633Z,31.27
2022-12-24T23:56:00.940Z,29.90
2022-12-24T23:59:10.231Z,30.27
